Latest Weather Observations for Port Hedland

IDW60801

Issued at 11:02 pm WST Wednesday 4 March 2015 (issued every 30 minutes, with the page automatically refreshed every 10 minutes)

About weather observations | Map of weather stations | Latest weather observations for WA | Other Formats
Station Details ID: 004032 Name: PORT HEDLAND AIRPORT Lat: -20.37 Lon: 118.63 Height: 6.4 m
Data from the previous 72 hours. | See also: Recent months at Port Hedland
Date/Time
WST
Temp
°C
App
Temp
°C
Dew
Point
Rel
Hum
%
Delta-T
°C
Wind Press
QNH
hPa
Press
MSL
hPa
Rain
since 9 am
mm
Dir
 
Spd
km/h
Gust
km/h
Spd
kts
Gust
kts
04/11:00pm 26.3 29.6 23.8 86 1.7 S 13 17 7 9 1009.3 - 2.4
04/10:30pm 26.1 29.0 23.9 88 1.5 SSE 15 19 8 10 1009.5 - 2.4
04/10:00pm 26.2 29.6 24.0 88 1.5 S 13 17 7 9 1009.5 - 2.4
04/09:30pm 26.0 29.4 24.0 89 1.4 S 13 19 7 10 1009.4 - 2.4
04/09:00pm 26.0 29.0 24.0 89 1.4 S 15 20 8 11 1009.3 1009.2 2.4
04/08:30pm 26.2 28.8 23.9 87 1.6 S 17 22 9 12 1009.1 - 2.4
04/08:00pm 26.0 28.3 24.1 89 1.3 S 19 24 10 13 1008.8 - 2.4
04/07:30pm 25.9 28.6 24.2 90 1.2 S 17 24 9 13 1008.4 - 2.4
04/07:00pm 25.9 28.1 24.0 89 1.3 S 19 26 10 14 1008.2 - 2.4
04/06:30pm 25.8 28.4 23.9 89 1.3 S 17 26 9 14 1008.1 - 2.4
04/06:00pm 25.8 28.7 23.9 89 1.3 S 15 22 8 12 1007.9 1007.8 2.4
04/05:30pm 25.9 28.6 24.2 90 1.2 SSE 17 20 9 11 1007.9 - 2.2
04/05:00pm 25.8 28.2 24.2 91 1.1 SSE 19 24 10 13 1007.9 - 2.0
04/04:30pm 25.9 28.6 24.2 90 1.2 SSE 17 22 9 12 1008.1 - 1.4
04/04:00pm 26.5 27.8 23.4 83 2.1 SSE 22 32 12 17 1008.3 - 0.6
04/03:30pm 27.4 28.5 23.0 77 3.0 SSE 22 28 12 15 1008.4 - 0.4
04/03:00pm 27.8 28.3 22.6 73 3.5 SSE 24 33 13 18 1008.3 1008.2 0.4
04/02:30pm 28.4 28.6 23.5 75 3.4 SSE 28 39 15 21 1008.3 - 0.4
04/02:00pm 28.6 28.3 23.2 72 3.7 SSE 30 41 16 22 1008.3 - 0.4
04/01:30pm 27.8 28.0 23.4 77 3.0 SSE 28 35 15 19 1008.4 - 0.4
04/01:00pm 27.2 29.1 23.7 81 2.4 SSE 20 26 11 14 1009.0 - 0.4
04/12:30pm 27.0 28.8 23.5 81 2.4 SE 20 28 11 15 1009.6 - 0.4
04/12:00pm 27.4 29.3 23.8 81 2.5 SE 20 32 11 17 1010.2 1010.1 0.0
04/11:30am 28.6 28.3 22.6 70 4.1 ESE 28 35 15 19 1010.3 - 0.0
04/11:00am 28.7 29.8 23.1 71 3.8 ESE 22 30 12 16 1010.4 - 0.0
04/10:30am 28.3 28.6 23.0 73 3.6 ESE 26 35 14 19 1010.4 - 0.0
04/10:00am 27.7 28.9 23.9 80 2.6 SE 24 33 13 18 1010.6 - 0.0
04/09:30am 26.9 28.8 23.5 81 2.3 SE 19 26 10 14 1010.7 - 0.0
04/09:00am 26.2 29.3 23.6 85 1.8 E 13 20 7 11 1010.9 1010.8 5.6
04/08:30am 25.4 27.6 23.2 88 1.5 SSE 17 26 9 14 1010.2 - 5.6
04/08:00am 24.8 27.0 23.3 91 1.0 SSE 17 24 9 13 1010.4 - 5.6
04/07:30am 24.2 26.2 23.0 93 0.8 SSE 17 22 9 12 1010.0 - 5.6
04/07:00am 24.1 26.2 23.1 94 0.7 SE 17 22 9 12 1009.7 - 5.6
04/06:30am 24.2 26.5 23.5 96 0.5 SSE 17 24 9 13 1009.2 - 5.4
04/05:30am 24.2 27.7 23.5 96 0.5 SSE 11 15 6 8 1008.1 - 4.4
04/05:00am 24.1 28.1 23.1 94 0.7 SW 7 9 4 5 1007.5 - 3.6
04/04:30am 24.2 27.5 23.2 94 0.7 SE 11 15 6 8 1007.9 - 2.6
04/04:00am 24.2 26.6 22.9 92 0.9 SE 15 20 8 11 1008.0 - 2.2
04/03:30am 24.5 25.5 22.9 91 1.1 E 22 32 12 17 1008.6 - 0.6
04/03:00am 26.1 25.4 21.8 77 2.9 ESE 28 37 15 20 1008.4 1008.3 0.0
04/02:57am 26.5 25.5 21.2 72 3.5 ESE 28 37 15 20 1008.3 - 0.0
04/02:30am 28.8 31.1 22.0 66 4.6 SSE 13 19 7 10 1008.0 - 0.0
04/02:00am 28.4 29.9 22.0 68 4.3 WSW 17 20 9 11 1007.3 - 0.0
04/01:30am 28.7 29.8 22.0 67 4.5 SW 19 22 10 12 1007.3 - 0.0
04/01:00am 28.7 29.7 22.8 70 4.0 SW 22 30 12 16 1007.3 - 0.0
04/12:30am 28.8 29.6 23.1 71 3.9 SW 24 30 13 16 1007.3 - 0.0
04/12:00am 29.0 30.6 23.2 71 4.0 WSW 20 28 11 15 1007.7 1007.6 0.0
 
Date/Time
WST
Temp
°C
App
Temp
°C
Dew
Point
Rel
Hum
%
Delta-T
°C
Wind Press
QNH
hPa
Press
MSL
hPa
Rain
since 9 am
mm
Dir
 
Spd
km/h
Gust
km/h
Spd
kts
Gust
kts
03/11:30pm 29.1 30.8 23.1 70 4.1 WSW 19 26 10 14 1008.3 - 0.0
03/11:00pm 29.1 30.7 23.3 71 4.0 W 20 24 11 13 1008.2 - 0.0
03/10:30pm 29.5 31.1 22.9 67 4.5 W 19 22 10 12 1008.4 - 0.0
03/10:00pm 29.7 31.2 22.7 66 4.8 W 19 28 10 15 1008.4 - 0.0
03/09:30pm 29.9 31.8 22.7 65 4.9 W 17 20 9 11 1008.6 - 0.0
03/09:00pm 30.0 31.9 22.7 65 5.0 WNW 17 22 9 12 1008.4 1008.3 0.0
03/08:30pm 30.2 32.3 23.1 65 4.9 WNW 17 22 9 12 1007.9 - 0.0
03/08:00pm 30.5 32.7 23.2 65 5.0 NW 17 22 9 12 1007.4 - 0.0
03/07:30pm 30.6 31.7 23.0 64 5.2 NNW 22 28 12 15 1006.9 - 0.0
03/07:00pm 30.7 32.1 22.8 62 5.4 NNW 20 28 11 15 1006.7 - 0.0
03/06:30pm 31.0 31.4 22.5 60 5.8 NNW 24 32 13 17 1006.0 - 0.0
03/06:00pm 31.7 31.0 22.5 58 6.3 NNW 30 35 16 19 1005.5 1005.4 0.0
03/05:30pm 32.7 32.5 22.0 53 7.3 N 26 35 14 19 1005.5 - 0.0
03/05:00pm 32.8 32.5 22.6 55 7.0 NNW 28 33 15 18 1005.3 - 0.0
03/04:30pm 33.2 32.4 22.4 53 7.4 NNW 30 35 16 19 1005.1 - 0.0
03/04:00pm 34.1 33.7 22.3 50 8.1 NNW 28 35 15 19 1005.2 - 0.0
03/03:30pm 34.0 33.8 22.0 49 8.2 NNW 26 33 14 18 1005.3 - 0.0
03/03:00pm 34.8 35.3 22.6 49 8.4 NNW 24 35 13 19 1005.5 1005.4 0.0
03/02:30pm 34.7 34.7 21.7 46 8.9 NNW 24 32 13 17 1005.8 - 0.0
03/02:00pm 34.7 35.4 22.3 48 8.5 NNW 22 33 12 18 1006.2 - 0.0
03/01:30pm 34.4 35.4 21.8 48 8.6 N 19 30 10 16 1006.8 - 0.0
03/01:00pm 34.7 35.8 22.3 48 8.5 NNW 20 26 11 14 1007.3 - 0.0
03/12:30pm 34.4 35.6 22.5 50 8.2 N 20 30 11 16 1007.7 - 0.0
03/12:00pm 34.0 35.0 21.8 49 8.3 N 19 26 10 14 1008.1 1008.0 0.0
03/11:30am 34.3 35.4 22.0 48 8.4 N 19 28 10 15 1008.5 - 0.0
03/11:00am 33.8 35.0 22.1 50 8.0 N 19 26 10 14 1008.8 - 0.0
03/10:30am 32.8 33.4 21.4 51 7.7 N 20 22 11 12 1009.0 - 0.0
03/10:00am 33.8 37.0 21.6 49 8.3 W 7 13 4 7 1008.8 - 0.0
03/09:30am 32.5 35.2 20.3 48 8.1 WNW 6 13 3 7 1009.1 - 0.0
03/09:00am 30.9 34.3 22.7 61 5.6 W 9 13 5 7 1009.2 1009.1 0.0
03/08:30am 30.0 33.5 23.6 68 4.4 SW 11 13 6 7 1009.2 - 0.0
03/08:00am 30.2 34.1 24.2 70 4.2 W 11 17 6 9 1009.0 - 0.0
03/07:30am 29.4 32.5 24.2 73 3.6 W 15 20 8 11 1008.9 - 0.0
03/07:00am 28.3 32.5 24.1 78 2.9 WSW 9 13 5 7 1008.5 - 0.0
03/06:30am 26.1 30.6 23.9 88 1.5 W 7 7 4 4 1008.2 - 0.0
03/06:00am 25.9 30.2 23.6 87 1.6 W 7 9 4 5 1007.8 1007.7 0.0
03/05:30am 26.0 30.3 23.7 87 1.6 WNW 7 9 4 5 1007.4 - 0.0
03/05:00am 26.2 30.5 23.6 85 1.8 WNW 7 9 4 5 1007.2 - 0.0
03/04:30am 26.5 30.4 23.6 84 2.0 WSW 9 11 5 6 1007.1 - 0.0
03/04:00am 26.2 29.7 23.6 85 1.8 W 11 13 6 7 1006.7 - 0.0
03/03:30am 26.5 29.9 23.4 83 2.1 WNW 11 13 6 7 1006.7 - 0.0
03/03:00am 26.8 30.2 23.4 81 2.3 W 11 15 6 8 1006.6 1006.5 0.0
03/02:30am 27.0 30.0 23.3 80 2.5 W 13 17 7 9 1006.6 - 0.0
03/02:00am 26.8 29.9 22.8 79 2.7 WSW 11 15 6 8 1006.7 - 0.0
03/01:30am 27.3 30.0 22.9 77 3.0 W 13 17 7 9 1006.8 - 0.0
03/01:00am 27.6 30.2 22.7 74 3.3 W 13 17 7 9 1006.9 - 0.0
03/12:30am 28.0 29.9 22.7 73 3.6 W 17 20 9 11 1007.0 - 0.0
03/12:00am 28.1 29.9 22.5 71 3.8 W 17 19 9 10 1007.2 1007.1 0.0
 
Date/Time
WST
Temp
°C
App
Temp
°C
Dew
Point
Rel
Hum
%
Delta-T
°C
Wind Press
QNH
hPa
Press
MSL
hPa
Rain
since 9 am
mm
Dir
 
Spd
km/h
Gust
km/h
Spd
kts
Gust
kts
02/11:30pm 28.3 30.3 22.9 72 3.7 W 17 24 9 13 1007.4 - 0.0
02/11:00pm 28.5 30.3 23.3 73 3.6 W 19 24 10 13 1007.5 - 0.0
02/10:30pm 28.6 30.9 23.5 74 3.5 W 17 24 9 13 1007.7 - 0.0
02/10:00pm 28.8 30.3 23.1 71 3.9 WNW 20 26 11 14 1007.4 - 0.0
02/09:30pm 29.1 30.5 22.8 69 4.3 WNW 20 28 11 15 1007.2 - 0.0
02/09:00pm 29.1 29.5 22.5 67 4.5 WNW 24 30 13 16 1006.7 1006.6 0.0
02/08:30pm 29.1 30.1 22.2 66 4.7 WNW 20 28 11 15 1006.2 - 0.0
02/08:00pm 29.4 29.6 22.0 64 5.0 NW 24 33 13 18 1005.9 - 0.0
02/07:30pm 29.5 30.6 22.0 64 5.1 WNW 19 20 10 11 1005.2 - 0.0
02/07:00pm 29.8 29.6 22.0 63 5.3 NNW 26 32 14 17 1005.1 - 0.0
02/06:30pm 30.4 30.5 21.8 60 5.8 NNW 24 28 13 15 1004.7 - 0.0
02/06:00pm 31.2 30.8 21.6 56 6.5 NNW 26 32 14 17 1004.6 1004.5 0.0
02/05:30pm 31.8 31.1 21.1 53 7.2 NW 26 32 14 17 1004.1 - 0.0
02/05:00pm 32.6 31.3 20.7 49 8.0 NW 28 35 15 19 1003.7 - 0.0
02/04:30pm 33.5 32.2 20.7 47 8.6 NW 28 37 15 20 1003.5 - 0.0
02/04:00pm 34.2 32.6 21.6 47 8.6 NW 32 39 17 21 1003.4 - 0.0
02/03:30pm 33.8 30.8 19.1 42 9.7 NW 33 41 18 22 1003.9 - 0.0
02/03:00pm 34.5 32.2 20.5 44 9.4 NW 33 41 18 22 1004.1 1004.0 0.0
02/02:30pm 34.3 31.5 19.5 41 9.8 NW 33 43 18 23 1004.5 - 0.0
02/02:00pm 35.3 32.9 20.4 41 10.0 NW 33 41 18 22 1004.8 - 0.0
02/01:30pm 34.6 31.7 19.2 40 10.2 NW 33 41 18 22 1005.0 - 0.0
02/01:00pm 34.2 31.7 19.8 42 9.6 NW 32 43 17 23 1005.5 - 0.0
02/12:30pm 34.4 32.3 19.8 42 9.7 NW 30 39 16 21 1006.0 - 0.0
02/12:00pm 34.6 32.9 20.6 44 9.4 NNW 30 41 16 22 1006.5 1006.4 0.0
02/11:30am 34.2 33.4 21.7 48 8.5 NW 28 39 15 21 1006.7 - 0.0
02/11:00am 33.7 33.0 21.8 49 8.1 NW 28 37 15 20 1007.0 - 0.0
02/10:30am 34.2 34.9 19.6 42 9.7 W 15 26 8 14 1007.4 - 0.0
02/10:00am 33.5 33.1 19.0 42 9.5 W 19 32 10 17 1007.7 - 0.0
02/09:30am 32.2 31.7 19.2 46 8.5 W 20 28 11 15 1007.8 - 0.0
02/09:00am 31.7 31.3 19.4 48 8.1 SW 20 28 11 15 1008.0 1007.9 0.0
02/08:30am 30.9 30.2 19.5 50 7.5 W 22 28 12 15 1007.8 - 0.0
02/08:00am 29.9 29.7 20.6 57 6.2 WSW 22 30 12 16 1007.5 - 0.0
02/07:30am 29.0 29.8 21.4 63 5.1 WSW 19 22 10 12 1007.4 - 0.0
02/07:00am 27.3 29.3 22.9 77 3.0 WSW 17 20 9 11 1007.2 - 0.0
02/06:30am 26.1 29.1 22.7 81 2.3 WSW 11 15 6 8 1007.1 - 0.0
02/06:00am 25.9 29.2 22.6 82 2.2 W 9 11 5 6 1007.1 1007.0 0.0
02/05:30am 26.0 29.0 22.6 81 2.3 W 11 13 6 7 1006.7 - 0.0
02/05:00am 26.1 29.3 23.0 83 2.1 W 11 13 6 7 1006.4 - 0.0
02/04:30am 26.0 29.3 23.2 84 1.9 W 11 13 6 7 1006.4 - 0.0
02/04:00am 26.5 29.5 23.3 82 2.2 WSW 13 15 7 8 1006.3 - 0.0
02/03:30am 26.6 29.6 23.4 82 2.2 WSW 13 15 7 8 1006.5 - 0.0
02/03:00am 26.9 29.9 23.4 81 2.4 WSW 13 15 7 8 1006.7 1006.6 0.0
02/02:30am 26.9 29.9 23.4 81 2.4 WSW 13 15 7 8 1006.6 - 0.0
02/02:00am 26.9 29.9 23.4 81 2.4 WSW 13 15 7 8 1006.7 - 0.0
02/01:30am 27.2 30.2 23.4 80 2.6 WSW 13 15 7 8 1006.9 - 0.0
02/01:00am 27.3 30.7 23.4 79 2.7 WSW 11 13 6 7 1007.0 - 0.0
02/12:30am 27.9 30.8 23.1 75 3.3 W 13 17 7 9 1007.1 - 0.0
02/12:00am 28.0 30.2 23.3 75 3.2 W 17 19 9 10 1007.2 1007.1 0.0
 
Date/Time
WST
Temp
°C
App
Temp
°C
Dew
Point
Rel
Hum
%
Delta-T
°C
Wind Press
QNH
hPa
Press
MSL
hPa
Rain
since 9 am
mm
Dir
 
Spd
km/h
Gust
km/h
Spd
kts
Gust
kts
01/11:30pm 28.3 30.1 23.3 74 3.4 W 19 24 10 13 1007.1 - 0.0

Other Formats:

Comma delimited format used in spreadsheet applications
http://www.bom.gov.au/fwo/IDW60801/IDW60801.94312.axf

JavaScript Object Notation format (JSON) in row-major order
http://www.bom.gov.au/fwo/IDW60801/IDW60801.94312.json